createdAt,value
2022-12-08T00:00:39.632Z,14.69
2022-12-08T00:01:39.629Z,14.70
2022-12-08T00:02:39.726Z,14.69
2022-12-08T00:03:39.684Z,14.69
2022-12-08T00:04:39.595Z,14.69
2022-12-08T00:05:39.565Z,14.69
2022-12-08T00:06:39.567Z,14.64
2022-12-08T00:07:39.644Z,14.69
2022-12-08T00:08:39.570Z,14.61
2022-12-08T00:09:39.974Z,14.70
2022-12-08T00:10:48.797Z,14.68
2022-12-08T00:11:39.548Z,14.68
2022-12-08T00:12:39.552Z,14.68
2022-12-08T00:13:39.539Z,14.62
2022-12-08T00:14:39.540Z,14.73
2022-12-08T00:15:39.533Z,14.65
2022-12-08T00:16:39.610Z,14.61
2022-12-08T00:17:39.520Z,14.72
2022-12-08T00:18:39.520Z,14.68
2022-12-08T00:19:39.520Z,14.68
2022-12-08T00:20:39.512Z,14.68
2022-12-08T00:21:39.492Z,14.70
2022-12-08T00:22:39.498Z,14.70
2022-12-08T00:23:39.477Z,14.69
2022-12-08T00:24:39.508Z,14.69
2022-12-08T00:25:39.482Z,14.69
2022-12-08T00:26:39.463Z,14.69
2022-12-08T00:27:39.468Z,14.69
2022-12-08T00:28:39.471Z,14.69
2022-12-08T00:29:39.461Z,14.69
2022-12-08T00:30:39.458Z,14.68
2022-12-08T00:31:39.492Z,14.70
2022-12-08T00:32:39.472Z,14.69
2022-12-08T00:33:39.431Z,14.65
2022-12-08T00:34:39.441Z,14.69
2022-12-08T00:35:43.026Z,14.68
2022-12-08T00:36:39.413Z,14.70
2022-12-08T00:37:39.405Z,14.68
2022-12-08T00:38:39.409Z,14.72
2022-12-08T00:39:39.409Z,14.64
2022-12-08T00:40:39.394Z,14.62
2022-12-08T00:41:39.397Z,14.69
2022-12-08T00:42:39.398Z,14.69
2022-12-08T00:43:39.392Z,14.69
2022-12-08T00:44:39.371Z,14.69
2022-12-08T00:45:39.412Z,14.64
2022-12-08T00:46:39.365Z,14.64
2022-12-08T00:47:39.355Z,14.68
2022-12-08T00:48:39.382Z,14.64
2022-12-08T00:49:39.344Z,14.61
2022-12-08T00:50:39.347Z,14.68
2022-12-08T00:51:39.336Z,14.68
2022-12-08T00:52:39.330Z,14.69
2022-12-08T00:53:39.334Z,14.64
2022-12-08T00:54:39.334Z,14.72
2022-12-08T00:55:39.328Z,14.65
2022-12-08T00:56:39.353Z,14.62
2022-12-08T00:57:39.299Z,14.64
2022-12-08T00:58:39.314Z,14.70
2022-12-08T00:59:39.309Z,14.68
2022-12-08T01:00:39.310Z,14.68
2022-12-08T01:01:39.373Z,14.69
2022-12-08T01:02:39.287Z,14.75
2022-12-08T01:03:39.337Z,14.65
2022-12-08T01:04:39.312Z,14.65
2022-12-08T01:05:39.262Z,14.65
2022-12-08T01:06:39.258Z,14.68
2022-12-08T01:07:39.284Z,14.70
2022-12-08T01:08:39.260Z,14.64
2022-12-08T01:09:39.253Z,14.69
2022-12-08T01:10:39.241Z,14.58
2022-12-08T01:11:39.243Z,14.69
2022-12-08T01:12:39.264Z,14.65
2022-12-08T01:13:39.224Z,14.68
2022-12-08T01:14:39.234Z,14.68
2022-12-08T01:15:39.215Z,14.68
2022-12-08T01:16:39.272Z,14.69
2022-12-08T01:17:39.211Z,14.64
2022-12-08T01:18:39.197Z,14.69
2022-12-08T01:19:39.206Z,14.65
2022-12-08T01:20:39.208Z,14.68
2022-12-08T01:21:39.187Z,14.70
2022-12-08T01:22:39.191Z,14.68
2022-12-08T01:23:39.181Z,14.65
2022-12-08T01:24:39.183Z,14.68
2022-12-08T01:25:41.782Z,14.69
2022-12-08T01:26:39.172Z,14.69
2022-12-08T01:27:39.153Z,14.65
2022-12-08T01:28:39.143Z,14.70
2022-12-08T01:29:39.161Z,14.65
2022-12-08T01:30:39.230Z,14.65
2022-12-08T01:31:39.149Z,14.72
2022-12-08T01:32:39.203Z,14.68
2022-12-08T01:33:39.171Z,14.68
2022-12-08T01:34:39.134Z,14.69
2022-12-08T01:35:39.125Z,14.64
2022-12-08T01:36:39.135Z,14.64
2022-12-08T01:37:39.099Z,14.62
2022-12-08T01:38:39.095Z,14.68
2022-12-08T01:39:39.103Z,14.68
2022-12-08T01:40:39.100Z,14.70
2022-12-08T01:41:39.084Z,14.62
2022-12-08T01:42:39.084Z,14.54
2022-12-08T01:43:39.081Z,14.64
2022-12-08T01:44:39.071Z,14.68
2022-12-08T01:45:39.095Z,14.65
2022-12-08T01:46:39.091Z,14.65
2022-12-08T01:47:39.097Z,14.65
2022-12-08T01:48:39.073Z,14.65
2022-12-08T01:49:39.051Z,14.64
2022-12-08T01:50:39.041Z,14.64
2022-12-08T01:51:39.031Z,14.68
2022-12-08T01:52:39.062Z,14.65
2022-12-08T01:53:39.031Z,14.58
2022-12-08T01:54:39.022Z,14.55
2022-12-08T01:55:39.027Z,14.64
2022-12-08T01:56:39.016Z,14.60
2022-12-08T01:57:39.010Z,14.61
2022-12-08T01:58:38.990Z,14.68
2022-12-08T01:59:38.987Z,14.61
2022-12-08T02:00:38.979Z,14.68
2022-12-08T02:01:39.048Z,14.57
2022-12-08T02:02:39.027Z,14.64
2022-12-08T02:03:38.980Z,14.68
2022-12-08T02:04:38.959Z,14.64
2022-12-08T02:05:38.967Z,14.64
2022-12-08T02:06:38.945Z,14.62
2022-12-08T02:07:39.003Z,14.60
2022-12-08T02:08:38.971Z,14.64
2022-12-08T02:09:38.947Z,14.65
2022-12-08T02:10:38.925Z,14.64
2022-12-08T02:11:38.940Z,14.55
2022-12-08T02:12:38.929Z,14.58
2022-12-08T02:13:38.933Z,14.64
2022-12-08T02:14:38.919Z,14.58
2022-12-08T02:15:39.023Z,14.51
2022-12-08T02:16:38.911Z,14.54
2022-12-08T02:17:38.909Z,14.58
2022-12-08T02:18:38.884Z,14.60
2022-12-08T02:19:38.883Z,14.62
2022-12-08T02:20:38.891Z,14.64
2022-12-08T02:21:38.888Z,14.69
2022-12-08T02:22:38.885Z,14.68
2022-12-08T02:23:38.863Z,14.52
2022-12-08T02:24:38.880Z,14.64
2022-12-08T02:25:38.869Z,14.65
2022-12-08T02:26:38.854Z,14.60
2022-12-08T02:27:38.843Z,14.62
2022-12-08T02:28:38.845Z,14.61
2022-12-08T02:29:38.847Z,14.64
2022-12-08T02:30:38.888Z,14.61
2022-12-08T02:31:38.824Z,14.68
2022-12-08T02:32:38.816Z,14.62
2022-12-08T02:33:38.830Z,14.68
2022-12-08T02:34:38.815Z,14.65
2022-12-08T02:35:38.830Z,14.64
2022-12-08T02:36:38.791Z,14.61
2022-12-08T02:37:38.805Z,14.65
2022-12-08T02:38:38.810Z,14.57
2022-12-08T02:39:38.793Z,14.65
2022-12-08T02:40:38.802Z,14.62
2022-12-08T02:41:38.784Z,14.62
2022-12-08T02:42:38.762Z,14.68
2022-12-08T02:43:38.773Z,14.61
2022-12-08T02:44:38.761Z,14.62
2022-12-08T02:45:38.762Z,14.57
2022-12-08T02:46:38.776Z,14.58
2022-12-08T02:47:38.755Z,14.57
2022-12-08T02:48:38.779Z,14.61
2022-12-08T02:49:38.730Z,14.57
2022-12-08T02:50:38.725Z,14.58
2022-12-08T02:51:38.717Z,14.58
2022-12-08T02:52:38.722Z,14.57
2022-12-08T02:53:38.712Z,14.62
2022-12-08T02:54:38.703Z,14.62
2022-12-08T02:55:38.713Z,14.58
2022-12-08T02:56:38.711Z,14.62
2022-12-08T02:57:38.690Z,14.65
2022-12-08T02:58:38.693Z,14.60
2022-12-08T02:59:38.694Z,14.55
2022-12-08T03:00:38.685Z,14.60
2022-12-08T03:01:38.776Z,14.62
2022-12-08T03:02:38.740Z,14.57
2022-12-08T03:03:38.657Z,14.55
2022-12-08T03:04:38.668Z,14.58
2022-12-08T03:05:38.647Z,14.58
2022-12-08T03:06:38.654Z,14.60
2022-12-08T03:07:38.712Z,14.57
2022-12-08T03:08:38.625Z,14.57
2022-12-08T03:09:38.639Z,14.60
2022-12-08T03:10:38.614Z,14.57
2022-12-08T03:11:38.620Z,14.60
2022-12-08T03:12:38.640Z,14.52
2022-12-08T03:13:38.607Z,14.58
2022-12-08T03:14:38.594Z,14.60
2022-12-08T03:15:38.650Z,14.60
2022-12-08T03:16:38.599Z,14.61
2022-12-08T03:17:38.584Z,14.61
2022-12-08T03:18:38.571Z,14.58
2022-12-08T03:19:38.575Z,14.58
2022-12-08T03:20:38.567Z,14.61
2022-12-08T03:21:38.576Z,14.61
2022-12-08T03:22:38.566Z,14.61
2022-12-08T03:23:38.590Z,14.58
2022-12-08T03:24:38.559Z,14.54
2022-12-08T03:25:38.560Z,14.55
2022-12-08T03:26:38.540Z,14.58
2022-12-08T03:27:38.545Z,14.61
2022-12-08T03:28:38.558Z,14.58
2022-12-08T03:29:38.535Z,14.61
2022-12-08T03:30:38.657Z,14.58
2022-12-08T03:31:38.618Z,14.55
2022-12-08T03:32:38.502Z,14.62
2022-12-08T03:33:38.513Z,14.65
2022-12-08T03:34:38.494Z,14.64
2022-12-08T03:35:38.489Z,14.58
2022-12-08T03:36:38.500Z,14.58
2022-12-08T03:37:38.483Z,14.61
2022-12-08T03:38:38.483Z,14.64
2022-12-08T03:39:38.472Z,14.57
2022-12-08T03:40:38.459Z,14.54
2022-12-08T03:41:38.472Z,14.58
2022-12-08T03:42:38.447Z,14.57
2022-12-08T03:43:38.466Z,14.61
2022-12-08T03:44:38.466Z,14.61
2022-12-08T03:45:38.440Z,14.61
2022-12-08T03:46:38.444Z,14.61
2022-12-08T03:47:38.456Z,14.61
2022-12-08T03:48:38.440Z,14.58
2022-12-08T03:49:38.421Z,14.55
2022-12-08T03:50:38.411Z,14.57
2022-12-08T03:51:38.411Z,14.58
2022-12-08T03:52:38.400Z,14.58
2022-12-08T03:53:38.397Z,14.61
2022-12-08T03:54:38.389Z,14.60
2022-12-08T03:55:38.388Z,14.55
2022-12-08T03:56:38.384Z,14.57
2022-12-08T03:57:38.391Z,14.61
2022-12-08T03:58:38.371Z,14.58
2022-12-08T03:59:38.381Z,14.61
2022-12-08T04:00:38.387Z,14.64
2022-12-08T04:01:38.465Z,14.58
2022-12-08T04:02:38.380Z,14.60
2022-12-08T04:03:38.345Z,14.60
2022-12-08T04:04:38.350Z,14.65
2022-12-08T04:05:38.332Z,14.55
2022-12-08T04:06:38.334Z,14.57
2022-12-08T04:07:38.393Z,14.61
2022-12-08T04:08:38.313Z,14.58
2022-12-08T04:09:38.332Z,14.57
2022-12-08T04:10:38.333Z,14.61
2022-12-08T04:11:38.302Z,14.58
2022-12-08T04:12:38.313Z,14.60
2022-12-08T04:13:38.310Z,14.57
2022-12-08T04:14:38.298Z,14.54
2022-12-08T04:15:38.343Z,14.58
2022-12-08T04:16:38.373Z,14.58
2022-12-08T04:17:38.273Z,14.54
2022-12-08T04:18:38.273Z,14.57
2022-12-08T04:19:38.258Z,14.57
2022-12-08T04:20:38.269Z,14.61
2022-12-08T04:21:38.254Z,14.58
2022-12-08T04:22:38.253Z,14.60
2022-12-08T04:23:38.252Z,14.60
2022-12-08T04:24:38.245Z,14.58
2022-12-08T04:25:38.228Z,14.61
2022-12-08T04:26:38.230Z,14.61
2022-12-08T04:27:38.220Z,14.60
2022-12-08T04:28:38.223Z,14.57
2022-12-08T04:29:38.219Z,14.54
2022-12-08T04:30:38.205Z,14.58
2022-12-08T04:31:38.279Z,14.58
2022-12-08T04:32:41.730Z,14.62
2022-12-08T04:33:38.191Z,14.61
2022-12-08T04:34:38.184Z,14.58
2022-12-08T04:35:38.191Z,14.57
2022-12-08T04:36:38.181Z,14.51
2022-12-08T04:37:38.167Z,14.60
2022-12-08T04:38:38.157Z,14.57
2022-12-08T04:39:38.169Z,14.62
2022-12-08T04:40:38.144Z,14.57
2022-12-08T04:41:38.159Z,14.61
2022-12-08T04:42:38.142Z,14.62
2022-12-08T04:43:38.138Z,14.60
2022-12-08T04:44:38.124Z,14.61
2022-12-08T04:45:38.137Z,14.57
2022-12-08T04:46:43.126Z,14.54
2022-12-08T04:47:38.121Z,14.62
2022-12-08T04:48:38.121Z,14.64
2022-12-08T04:49:38.104Z,14.62
2022-12-08T04:50:38.100Z,14.61
2022-12-08T04:51:38.095Z,14.62
2022-12-08T04:52:38.083Z,14.58
2022-12-08T04:53:42.061Z,14.62
2022-12-08T04:54:38.090Z,14.55
2022-12-08T04:55:38.071Z,14.57
2022-12-08T04:56:38.065Z,14.60
2022-12-08T04:57:38.074Z,14.57
2022-12-08T04:58:38.075Z,14.60
2022-12-08T04:59:38.069Z,14.50
2022-12-08T05:00:38.072Z,14.61
2022-12-08T05:01:38.177Z,14.57
2022-12-08T05:02:38.095Z,14.60
2022-12-08T05:03:38.031Z,14.61
2022-12-08T05:04:38.047Z,14.62
2022-12-08T05:05:38.033Z,14.61
2022-12-08T05:06:38.011Z,14.60
2022-12-08T05:07:38.089Z,14.55
2022-12-08T05:08:38.001Z,14.61
2022-12-08T05:09:38.011Z,14.57
2022-12-08T05:10:38.006Z,14.55
2022-12-08T05:11:38.005Z,14.60
2022-12-08T05:12:37.993Z,14.57
2022-12-08T05:13:37.992Z,14.58
2022-12-08T05:14:37.968Z,14.57
2022-12-08T05:15:37.987Z,14.61
2022-12-08T05:16:38.007Z,14.60
2022-12-08T05:17:37.959Z,14.57
2022-12-08T05:18:37.965Z,14.57
2022-12-08T05:19:37.969Z,14.60
2022-12-08T05:20:37.956Z,14.60
2022-12-08T05:21:37.953Z,14.60
2022-12-08T05:22:37.938Z,14.61
2022-12-08T05:23:37.932Z,14.47
2022-12-08T05:24:41.294Z,14.62
2022-12-08T05:25:37.931Z,14.60
2022-12-08T05:26:37.910Z,14.46
2022-12-08T05:27:37.922Z,14.46
2022-12-08T05:28:42.612Z,14.61
2022-12-08T05:29:37.936Z,14.58
2022-12-08T05:30:37.902Z,14.58
2022-12-08T05:31:37.993Z,14.60
2022-12-08T05:32:37.877Z,14.61
2022-12-08T05:33:37.876Z,14.54
2022-12-08T05:34:37.875Z,14.60
2022-12-08T05:35:37.863Z,14.50
2022-12-08T05:36:37.906Z,14.54
2022-12-08T05:37:37.855Z,14.52
2022-12-08T05:38:37.855Z,14.60
2022-12-08T05:39:37.961Z,14.55
2022-12-08T05:40:37.853Z,14.58
2022-12-08T05:41:37.835Z,14.57
2022-12-08T05:42:37.831Z,14.47
2022-12-08T05:43:37.839Z,14.58
2022-12-08T05:44:37.825Z,14.60
2022-12-08T05:45:37.885Z,14.50
2022-12-08T05:46:37.800Z,14.47
2022-12-08T05:47:37.815Z,14.47
2022-12-08T05:48:37.801Z,14.47
2022-12-08T05:49:37.798Z,14.61
2022-12-08T05:50:37.795Z,14.62
2022-12-08T05:51:37.792Z,14.60
2022-12-08T05:52:37.801Z,14.58
2022-12-08T05:53:37.783Z,14.60
2022-12-08T05:54:37.778Z,14.54
2022-12-08T05:55:37.759Z,14.64
2022-12-08T05:56:37.766Z,14.70
2022-12-08T05:57:37.761Z,14.68
2022-12-08T05:58:37.754Z,14.65
2022-12-08T05:59:37.763Z,14.69
2022-12-08T06:00:37.730Z,14.72
2022-12-08T06:01:37.832Z,14.73
2022-12-08T06:02:37.913Z,14.75
2022-12-08T06:03:37.778Z,14.91
2022-12-08T06:04:37.720Z,14.81
2022-12-08T06:05:37.707Z,14.81
2022-12-08T06:06:37.716Z,14.88
2022-12-08T06:07:37.772Z,14.89
2022-12-08T06:08:37.729Z,14.92
2022-12-08T06:09:37.683Z,14.99
2022-12-08T06:10:37.707Z,15.03
2022-12-08T06:11:37.677Z,15.02
2022-12-08T06:12:37.688Z,15.02
2022-12-08T06:13:37.672Z,15.07
2022-12-08T06:14:37.665Z,15.03
2022-12-08T06:15:37.657Z,15.09
2022-12-08T06:16:37.731Z,15.14
2022-12-08T06:17:37.651Z,15.16
2022-12-08T06:18:37.645Z,15.17
2022-12-08T06:19:37.653Z,15.11
2022-12-08T06:20:37.651Z,15.19
2022-12-08T06:21:37.630Z,15.23
2022-12-08T06:22:37.652Z,15.25
2022-12-08T06:23:37.619Z,15.29
2022-12-08T06:24:37.648Z,15.38
2022-12-08T06:25:37.612Z,15.25
2022-12-08T06:26:37.637Z,15.32
2022-12-08T06:27:37.615Z,15.32
2022-12-08T06:28:37.612Z,15.29
2022-12-08T06:29:37.644Z,15.38
2022-12-08T06:30:37.593Z,15.38
2022-12-08T06:31:37.680Z,15.36
2022-12-08T06:32:37.596Z,15.50
2022-12-08T06:33:37.597Z,15.41
2022-12-08T06:34:37.680Z,15.50
2022-12-08T06:35:37.567Z,15.54
2022-12-08T06:36:37.578Z,15.47
2022-12-08T06:37:37.556Z,15.60
2022-12-08T06:38:42.960Z,15.62
2022-12-08T06:39:37.569Z,15.60
2022-12-08T06:40:37.595Z,15.64
2022-12-08T06:41:37.556Z,15.60
2022-12-08T06:42:37.544Z,15.65
2022-12-08T06:43:37.535Z,15.62
2022-12-08T06:44:37.549Z,15.68
2022-12-08T06:45:37.579Z,15.72
2022-12-08T06:46:37.537Z,15.78
2022-12-08T06:47:37.530Z,15.76
2022-12-08T06:48:37.537Z,15.76
2022-12-08T06:49:37.514Z,15.80
2022-12-08T06:50:37.520Z,15.87
2022-12-08T06:51:37.515Z,15.87
2022-12-08T06:52:45.620Z,15.94
2022-12-08T06:53:37.494Z,15.92
2022-12-08T06:54:37.511Z,15.93
2022-12-08T06:56:37.509Z,15.96
2022-12-08T06:57:37.493Z,16.01
2022-12-08T06:58:37.479Z,16.05
2022-12-08T06:59:37.483Z,16.09
2022-12-08T07:00:37.481Z,16.08
2022-12-08T07:01:37.628Z,16.14
2022-12-08T07:02:37.566Z,16.12
2022-12-08T07:03:37.453Z,16.21
2022-12-08T07:04:37.468Z,16.21
2022-12-08T07:05:37.444Z,16.21
2022-12-08T07:06:37.443Z,16.31
2022-12-08T07:07:37.481Z,16.28
2022-12-08T07:08:37.449Z,16.28
2022-12-08T07:09:37.431Z,16.38
2022-12-08T07:10:37.435Z,16.38
2022-12-08T07:11:37.435Z,16.39
2022-12-08T07:12:37.455Z,16.45
2022-12-08T07:13:37.430Z,16.49
2022-12-08T07:14:37.427Z,16.39
2022-12-08T07:15:37.411Z,16.43
2022-12-08T07:16:37.465Z,16.46
2022-12-08T07:17:37.419Z,16.46
2022-12-08T07:18:37.400Z,16.49
2022-12-08T07:19:37.397Z,16.53
2022-12-08T07:20:37.415Z,16.63
2022-12-08T07:21:37.400Z,16.60
2022-12-08T07:22:37.395Z,16.57
2022-12-08T07:23:37.378Z,16.61
2022-12-08T07:24:37.380Z,16.61
2022-12-08T07:25:37.373Z,16.60
2022-12-08T07:26:37.375Z,16.58
2022-12-08T07:27:37.366Z,16.57
2022-12-08T07:28:37.387Z,16.58
2022-12-08T07:29:37.403Z,16.61
2022-12-08T07:30:37.445Z,16.64
2022-12-08T07:31:37.370Z,16.60
2022-12-08T07:32:37.354Z,16.60
2022-12-08T07:33:37.360Z,16.60
2022-12-08T07:34:37.348Z,16.58
2022-12-08T07:35:37.349Z,16.53
2022-12-08T07:36:37.336Z,16.58
2022-12-08T07:37:37.334Z,16.53
2022-12-08T07:38:37.331Z,16.53
2022-12-08T07:39:37.334Z,16.56
2022-12-08T07:40:37.323Z,16.53
2022-12-08T07:41:37.328Z,16.48
2022-12-08T07:42:37.333Z,16.49
2022-12-08T07:43:37.311Z,16.53
2022-12-08T07:44:37.343Z,16.45
2022-12-08T07:45:37.302Z,16.49
2022-12-08T07:46:37.409Z,16.48
2022-12-08T07:47:37.309Z,16.46
2022-12-08T07:48:37.313Z,16.41
2022-12-08T07:49:37.285Z,16.48
2022-12-08T07:50:37.291Z,16.52
2022-12-08T07:51:37.299Z,16.39
2022-12-08T07:52:37.292Z,16.35
2022-12-08T07:53:37.288Z,16.45
2022-12-08T07:54:37.289Z,16.45
2022-12-08T07:55:37.261Z,16.43
2022-12-08T07:56:37.266Z,16.34
2022-12-08T07:57:37.272Z,16.33
2022-12-08T07:58:37.275Z,16.31
2022-12-08T07:59:37.261Z,16.31
2022-12-08T08:00:37.376Z,16.31
2022-12-08T08:01:37.477Z,16.34
2022-12-08T08:02:37.452Z,16.20
2022-12-08T08:03:37.231Z,16.17
2022-12-08T08:04:37.323Z,16.23
2022-12-08T08:05:37.241Z,16.27
2022-12-08T08:06:37.227Z,16.20
2022-12-08T08:07:37.342Z,16.15
2022-12-08T08:08:37.249Z,16.17
2022-12-08T08:09:37.209Z,16.17
2022-12-08T08:10:37.212Z,16.12
2022-12-08T08:11:37.219Z,16.09
2022-12-08T08:12:37.219Z,16.11
2022-12-08T08:13:37.208Z,16.11
2022-12-08T08:14:37.194Z,16.08
2022-12-08T08:15:37.319Z,16.14
2022-12-08T08:16:38.777Z,16.04
2022-12-08T08:17:37.304Z,16.07
2022-12-08T08:18:37.191Z,16.08
2022-12-08T08:19:37.186Z,16.07
2022-12-08T08:20:37.170Z,16.02
2022-12-08T08:21:45.360Z,16.02
2022-12-08T08:22:37.213Z,16.05
2022-12-08T08:23:37.168Z,16.02
2022-12-08T08:24:41.589Z,16.08
2022-12-08T08:25:37.162Z,16.05
2022-12-08T08:26:37.162Z,16.08
2022-12-08T08:27:37.138Z,16.04
2022-12-08T08:28:37.137Z,16.01
2022-12-08T08:29:37.145Z,16.00
2022-12-08T08:30:37.150Z,16.04
2022-12-08T08:31:37.158Z,15.93
2022-12-08T08:32:37.156Z,15.96
2022-12-08T08:33:37.128Z,15.96
2022-12-08T08:34:37.130Z,15.94
2022-12-08T08:35:37.110Z,15.96
2022-12-08T08:36:37.122Z,15.84
2022-12-08T08:37:37.099Z,15.92
2022-12-08T08:38:37.098Z,15.87
2022-12-08T08:39:37.105Z,15.90
2022-12-08T08:40:37.101Z,15.89
2022-12-08T08:41:37.093Z,15.87
2022-12-08T08:42:37.082Z,15.80
2022-12-08T08:43:38.555Z,15.83
2022-12-08T08:44:37.087Z,15.82
2022-12-08T08:45:37.080Z,15.83
2022-12-08T08:46:37.116Z,15.72
2022-12-08T08:47:37.070Z,15.75
2022-12-08T08:48:37.103Z,15.71
2022-12-08T08:49:37.055Z,15.72
2022-12-08T08:50:37.843Z,15.72
2022-12-08T08:51:37.043Z,15.75
2022-12-08T08:52:37.054Z,15.69
2022-12-08T08:53:37.055Z,15.83
2022-12-08T08:54:37.036Z,15.83
2022-12-08T08:55:37.034Z,15.65
2022-12-08T08:56:37.038Z,15.71
2022-12-08T08:57:37.030Z,15.65
2022-12-08T08:58:37.034Z,15.68
2022-12-08T08:59:37.005Z,15.68
2022-12-08T09:00:37.028Z,15.67
2022-12-08T09:01:37.103Z,15.68
2022-12-08T09:02:37.048Z,15.67
2022-12-08T09:03:37.002Z,15.72
2022-12-08T09:04:37.101Z,15.62
2022-12-08T09:05:37.033Z,15.57
2022-12-08T09:06:37.082Z,15.65
2022-12-08T09:07:37.112Z,15.54
2022-12-08T09:08:36.973Z,15.60
2022-12-08T09:09:36.974Z,15.62
2022-12-08T09:10:36.959Z,15.65
2022-12-08T09:11:36.976Z,15.60
2022-12-08T09:12:36.957Z,15.60
2022-12-08T09:13:36.952Z,15.60
2022-12-08T09:14:37.719Z,15.67
2022-12-08T09:15:37.046Z,15.60
2022-12-08T09:16:41.958Z,15.59
2022-12-08T09:17:36.939Z,15.59
2022-12-08T09:18:36.943Z,15.54
2022-12-08T09:19:36.917Z,15.54
2022-12-08T09:20:36.949Z,15.54
2022-12-08T09:21:36.924Z,15.51
2022-12-08T09:22:36.924Z,15.57
2022-12-08T09:23:36.914Z,15.53
2022-12-08T09:24:36.908Z,15.49
2022-12-08T09:25:36.904Z,15.50
2022-12-08T09:26:36.890Z,15.50
2022-12-08T09:27:36.885Z,15.46
2022-12-08T09:28:36.895Z,15.50
2022-12-08T09:29:36.876Z,15.44
2022-12-08T09:30:36.888Z,15.50
2022-12-08T09:31:36.934Z,15.49
2022-12-08T09:32:36.866Z,15.47
2022-12-08T09:33:36.883Z,15.51
2022-12-08T09:34:36.872Z,15.49
2022-12-08T09:35:36.848Z,15.41
2022-12-08T09:36:36.866Z,15.54
2022-12-08T09:37:36.860Z,15.44
2022-12-08T09:38:36.842Z,15.51
2022-12-08T09:39:36.834Z,15.47
2022-12-08T09:40:36.832Z,15.47
2022-12-08T09:41:43.333Z,15.39
2022-12-08T09:42:36.850Z,15.43
2022-12-08T09:43:36.824Z,15.41
2022-12-08T09:44:36.829Z,15.41
2022-12-08T09:45:36.851Z,15.39
2022-12-08T09:46:36.886Z,15.44
2022-12-08T09:47:36.794Z,15.38
2022-12-08T09:48:36.810Z,15.47
2022-12-08T09:49:36.786Z,15.43
2022-12-08T09:50:36.786Z,15.39
2022-12-08T09:51:36.776Z,15.44
2022-12-08T09:52:36.828Z,15.36
2022-12-08T09:53:36.832Z,15.39
2022-12-08T09:54:36.769Z,15.41
2022-12-08T09:55:36.757Z,15.39
2022-12-08T09:56:36.776Z,15.36
2022-12-08T09:57:36.749Z,15.39
2022-12-08T09:58:36.749Z,15.41
2022-12-08T09:59:36.765Z,15.38
2022-12-08T10:00:36.744Z,15.41
2022-12-08T10:01:36.811Z,15.39
2022-12-08T10:02:36.750Z,15.36
2022-12-08T10:03:36.741Z,15.39
2022-12-08T10:04:36.798Z,15.38
2022-12-08T10:05:36.861Z,15.44
2022-12-08T10:06:36.718Z,15.31
2022-12-08T10:07:36.760Z,15.34
2022-12-08T10:08:36.776Z,15.39
2022-12-08T10:09:36.697Z,15.31
2022-12-08T10:10:36.706Z,15.35
2022-12-08T10:11:36.691Z,15.31
2022-12-08T10:12:36.701Z,15.28
2022-12-08T10:13:36.691Z,15.31
2022-12-08T10:14:36.689Z,15.31
2022-12-08T10:15:36.667Z,15.38
2022-12-08T10:16:36.799Z,15.35
2022-12-08T10:17:36.660Z,15.32
2022-12-08T10:18:36.654Z,15.43
2022-12-08T10:19:36.668Z,15.47
2022-12-08T10:20:36.669Z,15.43
2022-12-08T10:21:36.659Z,15.29
2022-12-08T10:22:41.275Z,15.39
2022-12-08T10:23:36.646Z,15.44
2022-12-08T10:24:36.660Z,15.31
2022-12-08T10:25:36.642Z,15.39
2022-12-08T10:26:36.629Z,15.28
2022-12-08T10:27:36.655Z,15.41
2022-12-08T10:28:41.386Z,15.35
2022-12-08T10:29:36.621Z,15.38
2022-12-08T10:30:36.607Z,15.36
2022-12-08T10:31:36.643Z,15.27
2022-12-08T10:32:36.602Z,15.32
2022-12-08T10:33:36.592Z,15.35
2022-12-08T10:34:36.587Z,15.35
2022-12-08T10:35:36.581Z,15.44
2022-12-08T10:36:36.598Z,15.41
2022-12-08T10:37:36.595Z,15.41
2022-12-08T10:38:36.562Z,15.36
2022-12-08T10:39:36.564Z,15.41
2022-12-08T10:40:40.702Z,15.29
2022-12-08T10:41:36.565Z,15.35
2022-12-08T10:42:36.561Z,15.28
2022-12-08T10:43:36.557Z,15.41
2022-12-08T10:44:36.546Z,15.35
2022-12-08T10:45:37.354Z,15.44
2022-12-08T10:46:41.010Z,15.34
2022-12-08T10:47:36.543Z,15.35
2022-12-08T10:48:36.514Z,15.38
2022-12-08T10:49:36.514Z,15.38
2022-12-08T10:50:36.524Z,15.41
2022-12-08T10:51:36.525Z,15.32
2022-12-08T10:52:36.506Z,15.39
2022-12-08T10:53:36.511Z,15.38
2022-12-08T10:54:36.490Z,15.38
2022-12-08T10:55:36.490Z,15.36
2022-12-08T10:56:36.513Z,15.36
2022-12-08T10:57:36.479Z,15.38
2022-12-08T10:58:36.490Z,15.43
2022-12-08T10:59:36.520Z,15.39
2022-12-08T11:00:36.706Z,15.36
2022-12-08T11:01:36.696Z,15.39
2022-12-08T11:02:36.523Z,15.39
2022-12-08T11:03:36.460Z,15.46
2022-12-08T11:04:36.445Z,15.39
2022-12-08T11:05:36.464Z,15.41
2022-12-08T11:06:36.434Z,15.31
2022-12-08T11:07:36.584Z,15.36
2022-12-08T11:08:36.425Z,15.32
2022-12-08T11:09:36.476Z,15.34
2022-12-08T11:10:36.456Z,15.32
2022-12-08T11:11:36.417Z,15.35
2022-12-08T11:12:36.438Z,15.43
2022-12-08T11:13:36.424Z,15.44
2022-12-08T11:14:36.448Z,15.41
2022-12-08T11:15:36.435Z,15.50
2022-12-08T11:16:36.600Z,15.31
2022-12-08T11:17:36.412Z,15.38
2022-12-08T11:18:36.396Z,15.39
2022-12-08T11:19:36.419Z,15.36
2022-12-08T11:20:36.397Z,15.32
2022-12-08T11:21:36.415Z,15.41
2022-12-08T11:22:36.380Z,15.39
2022-12-08T11:23:36.384Z,15.44
2022-12-08T11:24:37.888Z,15.28
2022-12-08T11:25:36.371Z,15.31
2022-12-08T11:26:36.381Z,15.41
2022-12-08T11:27:36.391Z,15.35
2022-12-08T11:28:36.373Z,15.29
2022-12-08T11:29:36.351Z,15.34
2022-12-08T11:30:36.335Z,15.44
2022-12-08T11:31:36.406Z,15.41
2022-12-08T11:32:36.333Z,15.39
2022-12-08T11:33:36.342Z,15.31
2022-12-08T11:34:36.327Z,15.28
2022-12-08T11:35:36.352Z,15.29
2022-12-08T11:36:36.318Z,15.38
2022-12-08T11:37:36.335Z,15.39
2022-12-08T11:38:36.329Z,15.36
2022-12-08T11:39:36.315Z,15.29
2022-12-08T11:40:36.306Z,15.36
2022-12-08T11:41:36.371Z,15.28
2022-12-08T11:42:36.284Z,15.41
2022-12-08T11:43:36.296Z,15.39
2022-12-08T11:44:36.298Z,15.38
2022-12-08T11:45:36.294Z,15.44
2022-12-08T11:46:36.356Z,15.41
2022-12-08T11:47:36.299Z,15.31
2022-12-08T11:48:36.290Z,15.34
2022-12-08T11:49:36.296Z,15.32
2022-12-08T11:50:36.274Z,15.34
2022-12-08T11:51:36.252Z,15.35
2022-12-08T11:52:36.261Z,15.38
2022-12-08T11:53:36.227Z,15.36
2022-12-08T11:54:36.299Z,15.35
2022-12-08T11:55:37.554Z,15.35
2022-12-08T11:56:36.228Z,15.32
2022-12-08T11:57:36.285Z,15.35
2022-12-08T11:58:36.201Z,15.34
2022-12-08T11:59:36.217Z,15.36
2022-12-08T12:00:36.209Z,15.27
2022-12-08T12:01:42.222Z,15.29
2022-12-08T12:02:36.270Z,15.32
2022-12-08T12:03:36.256Z,15.35
2022-12-08T12:04:36.194Z,15.35
2022-12-08T12:06:54.171Z,15.34
2022-12-08T12:07:36.181Z,15.34
2022-12-08T12:08:36.167Z,15.32
2022-12-08T12:09:36.166Z,15.35
2022-12-08T12:10:36.160Z,15.34
2022-12-08T12:11:36.155Z,15.36
2022-12-08T12:12:39.640Z,15.32
2022-12-08T12:13:36.146Z,15.35
2022-12-08T12:14:36.133Z,15.34
2022-12-08T12:15:36.128Z,15.21
2022-12-08T12:16:36.235Z,15.32
2022-12-08T12:17:36.134Z,15.36
2022-12-08T12:18:36.124Z,15.32
2022-12-08T12:19:36.133Z,15.25
2022-12-08T12:20:36.107Z,15.34
2022-12-08T12:21:36.102Z,15.35
2022-12-08T12:22:36.109Z,15.35
2022-12-08T12:23:36.096Z,15.35
2022-12-08T12:24:36.463Z,15.35
2022-12-08T12:25:36.079Z,15.32
2022-12-08T12:26:36.070Z,15.32
2022-12-08T12:27:36.085Z,15.38
2022-12-08T12:28:52.176Z,15.35
2022-12-08T12:29:36.224Z,15.39
2022-12-08T12:30:36.168Z,15.35
2022-12-08T12:31:36.050Z,15.29
2022-12-08T12:32:36.072Z,15.32
2022-12-08T12:33:36.062Z,15.31
2022-12-08T12:34:36.032Z,15.35
2022-12-08T12:35:36.059Z,15.31
2022-12-08T12:36:36.065Z,15.29
2022-12-08T12:37:36.022Z,15.29
2022-12-08T12:38:36.028Z,15.35
2022-12-08T12:39:36.014Z,15.39
2022-12-08T12:40:36.017Z,15.28
2022-12-08T12:41:36.016Z,15.25
2022-12-08T12:42:36.000Z,15.21
2022-12-08T12:43:36.011Z,15.31
2022-12-08T12:44:36.001Z,15.29
2022-12-08T12:45:35.998Z,15.31
2022-12-08T12:46:36.064Z,15.23
2022-12-08T12:47:35.988Z,15.34
2022-12-08T12:48:35.994Z,15.35
2022-12-08T12:49:35.976Z,15.29
2022-12-08T12:50:36.009Z,15.28
2022-12-08T12:51:35.976Z,15.23
2022-12-08T12:52:35.967Z,15.31
2022-12-08T12:53:35.963Z,15.34
2022-12-08T12:54:35.953Z,15.31